Time;durP1;ratioP1;P1;durP2;ratioP2;P2;SDS_P1;SDS_P2;PMS_P1;PMS_P2;Temp;Humidity;BMP_temperature;BMP_pressure;BME280_temperature;BME280_humidity;BME280_pressure;Samples;Min_cycle;Max_cycle;Signal;HPM_P1;HPM_P2
2022/12/06 00:01:19;;;;;;;13.57;12.65;;;;;;;;;;5031818;28;20060;-57
2022/12/06 00:03:46;;;;;;;12.57;11.77;;;;;;;;;;5036335;28;20030;-57
2022/12/06 00:06:14;;;;;;;12.95;12.15;;;;;;;;;;5033443;28;20025;-57
2022/12/06 00:08:40;;;;;;;11.60;10.90;;;;;;;;;;5036950;28;20056;-57
2022/12/06 00:11:17;;;;;;;12.50;11.70;;;;;;;;;;5034397;28;20093;-57
2022/12/06 00:13:44;;;;;;;11.82;11.13;;;;;;;;;;5035827;28;20457;-57
2022/12/06 00:16:13;;;;;;;12.13;11.43;;;;;;;;;;5035612;28;20018;-57
2022/12/06 00:18:40;;;;;;;12.13;11.38;;;;;;;;;;5033795;28;20116;-57
2022/12/06 00:21:09;;;;;;;12.98;12.18;;;;;;;;;;5034869;28;20029;-57
2022/12/06 00:23:37;;;;;;;13.25;12.40;;;;;;;;;;5037190;28;20086;-57
2022/12/06 00:26:03;;;;;;;12.20;11.43;;;;;;;;;;5033220;28;20395;-57
2022/12/06 00:28:28;;;;;;;13.75;12.68;;;;;;;;;;5034533;28;20057;-57
2022/12/06 00:31:01;;;;;;;13.05;12.05;;;;;;;;;;5033685;28;20505;-57
2022/12/06 00:33:27;;;;;;;12.57;11.50;;;;;;;;;;5033384;28;20696;-57
2022/12/06 00:35:58;;;;;;;11.45;10.75;;;;;;;;;;5039784;28;20090;-57
2022/12/06 00:38:24;;;;;;;11.48;10.77;;;;;;;;;;5035938;28;20040;-57
2022/12/06 00:40:50;;;;;;;11.50;10.80;;;;;;;;;;5034033;28;20098;-57
2022/12/06 00:43:15;;;;;;;12.40;11.70;;;;;;;;;;5034209;28;20045;-57
2022/12/06 00:45:43;;;;;;;13.13;12.32;;;;;;;;;;5037822;28;20048;-57
2022/12/06 00:48:08;;;;;;;12.23;11.43;;;;;;;;;;5035368;28;20033;-57
2022/12/06 00:50:33;;;;;;;12.50;11.70;;;;;;;;;;5034207;28;20055;-57
2022/12/06 00:52:59;;;;;;;12.20;11.50;;;;;;;;;;5032422;28;20029;-57
2022/12/06 00:55:24;;;;;;;12.55;11.65;;;;;;;;;;5036377;28;20042;-57
2022/12/06 00:57:50;;;;;;;11.50;10.80;;;;;;;;;;5035926;28;20076;-57
2022/12/06 01:00:15;;;;;;;13.55;12.75;;;;;;;;;;5037578;28;20049;-57
2022/12/06 01:02:41;;;;;;;12.60;11.80;;;;;;;;;;5035997;28;20323;-57
2022/12/06 01:05:06;;;;;;;13.20;12.30;;;;;;;;;;5035308;28;20508;-57
2022/12/06 01:07:32;;;;;;;11.93;11.13;;;;;;;;;;5032565;28;20032;-57
2022/12/06 01:09:57;;;;;;;11.90;11.20;;;;;;;;;;5033381;28;20641;-57
2022/12/06 01:12:22;;;;;;;12.32;11.63;;;;;;;;;;5037457;28;20091;-57
2022/12/06 01:14:48;;;;;;;12.27;11.48;;;;;;;;;;5035140;28;20464;-57
2022/12/06 01:17:13;;;;;;;12.23;11.52;;;;;;;;;;5038167;28;20049;-57
2022/12/06 01:19:39;;;;;;;11.32;10.63;;;;;;;;;;5034190;28;20125;-57
2022/12/06 01:22:04;;;;;;;11.45;10.75;;;;;;;;;;5035475;28;20029;-57
2022/12/06 01:24:29;;;;;;;11.95;11.25;;;;;;;;;;5034754;28;20042;-57
2022/12/06 01:26:55;;;;;;;11.95;11.25;;;;;;;;;;5034817;28;20591;-57
2022/12/06 01:29:20;;;;;;;12.35;11.55;;;;;;;;;;5035848;28;20040;-57
2022/12/06 01:31:45;;;;;;;12.32;11.63;;;;;;;;;;5034768;28;20033;-57
2022/12/06 01:34:16;;;;;;;11.80;11.10;;;;;;;;;;5031983;28;20025;-57
2022/12/06 01:36:41;;;;;;;11.82;11.07;;;;;;;;;;5033542;28;20033;-57
2022/12/06 01:39:09;;;;;;;11.88;11.18;;;;;;;;;;5034862;28;20041;-58
2022/12/06 01:41:35;;;;;;;11.95;11.25;;;;;;;;;;5034183;28;20049;-57
2022/12/06 01:44:01;;;;;;;11.93;11.23;;;;;;;;;;5030898;28;20037;-57
2022/12/06 01:46:42;;;;;;;11.18;10.48;;;;;;;;;;5032006;28;20625;-57
2022/12/06 01:49:12;;;;;;;11.90;11.20;;;;;;;;;;5042030;28;20041;-57
2022/12/06 01:51:57;;;;;;;10.88;10.23;;;;;;;;;;5037754;28;20037;-57
2022/12/06 01:54:23;;;;;;;12.43;11.63;;;;;;;;;;5031801;28;20037;-57
2022/12/06 01:56:51;;;;;;;12.00;11.30;;;;;;;;;;5032567;28;20029;-57
2022/12/06 01:59:17;;;;;;;12.07;11.38;;;;;;;;;;5030758;28;20037;-57
2022/12/06 02:01:45;;;;;;;12.32;11.55;;;;;;;;;;5032886;28;20037;-56
2022/12/06 02:04:10;;;;;;;12.88;12.13;;;;;;;;;;5034484;28;20037;-57
2022/12/06 02:06:37;;;;;;;12.00;11.30;;;;;;;;;;5033815;28;20478;-57
2022/12/06 02:09:05;;;;;;;11.73;11.02;;;;;;;;;;5034670;28;20109;-57
2022/12/06 02:11:31;;;;;;;12.45;11.65;;;;;;;;;;5032574;28;20076;-57
2022/12/06 02:13:56;;;;;;;11.60;10.90;;;;;;;;;;5033358;28;20614;-57
2022/12/06 02:16:28;;;;;;;11.60;10.90;;;;;;;;;;5032170;28;20045;-57
2022/12/06 02:19:15;;;;;;;;;;;;;;;;;;5030902;28;20041;-56
2022/12/06 02:22:01;;;;;;;10.82;10.15;;;;;;;;;;5034189;28;19973;-57
2022/12/06 02:24:53;;;;;;;11.60;10.90;;;;;;;;;;5030870;28;20536;-57
2022/12/06 02:27:36;;;;;;;11.70;11.00;;;;;;;;;;5034035;28;20521;-57
2022/12/06 02:30:17;;;;;;;10.98;10.27;;;;;;;;;;5031350;28;20036;-57
2022/12/06 02:33:00;;;;;;;10.70;10.07;;;;;;;;;;5032446;28;20032;-56
2022/12/06 02:35:49;;;;;;;12.27;11.43;;;;;;;;;;5031254;28;20506;-56
2022/12/06 02:38:25;;;;;;;11.27;10.57;;;;;;;;;;5036695;28;20041;-57
2022/12/06 02:40:59;;;;;;;11.13;10.43;;;;;;;;;;5032158;28;20029;-57
2022/12/06 02:43:37;;;;;;;11.07;10.38;;;;;;;;;;5030867;28;20062;-57
2022/12/06 02:46:04;;;;;;;11.38;10.68;;;;;;;;;;5031361;28;20075;-57
2022/12/06 02:48:31;;;;;;;11.07;10.38;;;;;;;;;;5030844;28;20063;-57
2022/12/06 02:51:01;;;;;;;12.27;11.48;;;;;;;;;;5032736;28;20025;-57
2022/12/06 02:53:29;;;;;;;10.93;10.25;;;;;;;;;;5032446;28;20047;-57
2022/12/06 02:55:56;;;;;;;12.05;11.35;;;;;;;;;;5032478;28;20041;-57
2022/12/06 02:58:21;;;;;;;11.57;10.88;;;;;;;;;;5034674;28;20112;-57
2022/12/06 03:01:01;;;;;;;11.48;10.77;;;;;;;;;;5031404;28;20059;-57
2022/12/06 03:03:52;;;;;;;10.65;10.00;;;;;;;;;;5030423;28;20043;-57
2022/12/06 03:06:47;;;;;;;11.52;10.73;;;;;;;;;;5030947;28;20124;-57
2022/12/06 03:09:20;;;;;;;10.88;10.20;;;;;;;;;;5012773;28;20053;-57
2022/12/06 03:12:14;;;;;;;11.55;10.77;;;;;;;;;;5033049;28;20033;-57
2022/12/06 03:14:47;;;;;;;11.35;10.65;;;;;;;;;;5014557;28;20099;-57
2022/12/06 03:17:12;;;;;;;11.82;11.13;;;;;;;;;;5030723;28;20025;-57
2022/12/06 03:19:40;;;;;;;11.45;10.75;;;;;;;;;;5033484;28;20037;-57
2022/12/06 03:22:09;;;;;;;10.18;9.55;;;;;;;;;;5031554;28;20029;-58
2022/12/06 03:24:38;;;;;;;11.25;10.55;;;;;;;;;;5032982;28;20124;-54
2022/12/06 03:27:07;;;;;;;11.00;10.30;;;;;;;;;;5036710;28;20063;-53
2022/12/06 03:29:35;;;;;;;10.52;9.90;;;;;;;;;;5035588;28;20034;-50
2022/12/06 03:32:05;;;;;;;11.00;10.32;;;;;;;;;;5044212;28;20030;-53
2022/12/06 03:34:43;;;;;;;10.98;10.32;;;;;;;;;;5037408;28;20113;-50
2022/12/06 03:37:12;;;;;;;10.57;9.88;;;;;;;;;;5034875;28;20064;-51
2022/12/06 03:39:45;;;;;;;9.82;9.23;;;;;;;;;;5033624;28;20079;-53
2022/12/06 03:42:11;;;;;;;10.88;10.18;;;;;;;;;;5035887;28;20033;-54
2022/12/06 03:44:36;;;;;;;11.48;10.77;;;;;;;;;;5034750;28;20078;-53
2022/12/06 03:47:35;;;;;;;11.40;10.68;;;;;;;;;;5034713;28;20064;-51
2022/12/06 03:50:06;;;;;;;10.43;9.73;;;;;;;;;;5030176;28;20079;-54
2022/12/06 03:52:32;;;;;;;10.65;9.98;;;;;;;;;;5035131;28;20048;-52
2022/12/06 03:54:58;;;;;;;11.35;10.65;;;;;;;;;;5036979;28;20049;-52
2022/12/06 03:57:23;;;;;;;10.05;9.45;;;;;;;;;;5035992;28;20029;-54
2022/12/06 03:59:48;;;;;;;11.00;10.30;;;;;;;;;;5035897;28;20347;-51
2022/12/06 04:02:14;;;;;;;11.23;10.52;;;;;;;;;;5036135;28;20116;-52
2022/12/06 04:04:39;;;;;;;10.70;10.00;;;;;;;;;;5036109;28;20106;-50
2022/12/06 04:07:05;;;;;;;11.50;10.80;;;;;;;;;;5036531;28;20124;-49
2022/12/06 04:14:58;;;;;;;10.80;10.10;;;;;;;;;;5035835;28;20032;-53
2022/12/06 04:20:08;;;;;;;9.75;9.15;;;;;;;;;;5033203;28;20052;-53
2022/12/06 04:25:17;;;;;;;10.95;10.25;;;;;;;;;;5035615;28;20106;-59
2022/12/06 04:38:41;;;;;;;10.73;10.02;;;;;;;;;;5034437;28;20041;-59
2022/12/06 04:41:10;;;;;;;10.25;9.65;;;;;;;;;;5031875;28;20122;-59
2022/12/06 04:43:42;;;;;;;10.75;10.07;;;;;;;;;;5036203;28;20108;-59
2022/12/06 04:46:11;;;;;;;;;;;;;;;;;;5035046;28;20029;-58
2022/12/06 04:48:37;;;;;;;9.73;9.02;;;;;;;;;;5036451;28;19917;-59
2022/12/06 04:51:03;;;;;;;10.55;9.88;;;;;;;;;;5035169;28;20054;-58
2022/12/06 04:53:28;;;;;;;10.35;9.75;;;;;;;;;;5037254;28;20048;-59
2022/12/06 04:55:53;;;;;;;10.60;9.93;;;;;;;;;;5034787;28;20041;-58
2022/12/06 04:58:19;;;;;;;10.88;10.18;;;;;;;;;;5033501;28;20131;-60
2022/12/06 05:00:44;;;;;;;10.85;10.15;;;;;;;;;;5038394;28;20429;-59
2022/12/06 05:03:11;;;;;;;9.43;8.82;;;;;;;;;;5034073;28;20037;-58
2022/12/06 05:05:36;;;;;;;8.55;8.05;;;;;;;;;;5035494;28;20075;-58
2022/12/06 05:08:02;;;;;;;10.77;10.07;;;;;;;;;;5032484;28;20060;-58
2022/12/06 05:10:28;;;;;;;10.00;9.18;;;;;;;;;;5035781;28;20439;-59
2022/12/06 05:12:53;;;;;;;9.20;8.60;;;;;;;;;;5035171;28;20080;-58
2022/12/06 05:15:18;;;;;;;10.05;9.45;;;;;;;;;;5034801;28;20374;-58
2022/12/06 05:17:44;;;;;;;9.88;9.18;;;;;;;;;;5036724;28;20039;-58
2022/12/06 05:20:09;;;;;;;9.80;9.20;;;;;;;;;;5031947;28;20060;-59
2022/12/06 05:22:35;;;;;;;10.05;9.45;;;;;;;;;;5035653;28;20044;-59
2022/12/06 05:25:00;;;;;;;9.43;8.82;;;;;;;;;;5032537;28;20090;-59
2022/12/06 05:27:25;;;;;;;8.95;8.35;;;;;;;;;;5033257;28;20037;-59
2022/12/06 05:29:51;;;;;;;9.32;8.73;;;;;;;;;;5032589;28;20036;-58
2022/12/06 05:32:16;;;;;;;10.35;9.75;;;;;;;;;;5035022;28;20063;-58
2022/12/06 05:34:42;;;;;;;9.27;8.68;;;;;;;;;;5036351;28;20066;-59
2022/12/06 05:37:07;;;;;;;9.20;8.60;;;;;;;;;;5033764;28;20071;-58
2022/12/06 05:39:32;;;;;;;9.48;8.88;;;;;;;;;;5033918;28;20155;-59
2022/12/06 05:41:58;;;;;;;10.23;9.57;;;;;;;;;;5035360;28;20095;-57
2022/12/06 05:44:23;;;;;;;11.02;10.32;;;;;;;;;;5033629;28;20033;-59
2022/12/06 05:46:48;;;;;;;10.43;9.77;;;;;;;;;;5035784;28;20055;-60
2022/12/06 05:49:14;;;;;;;10.30;9.70;;;;;;;;;;5035158;28;20069;-58
2022/12/06 05:51:39;;;;;;;8.85;8.25;;;;;;;;;;5032078;28;20072;-58
2022/12/06 05:54:05;;;;;;;10.23;9.52;;;;;;;;;;5033045;28;20528;-59
2022/12/06 05:56:31;;;;;;;9.70;9.10;;;;;;;;;;5032859;28;20029;-58
2022/12/06 05:58:57;;;;;;;9.30;8.70;;;;;;;;;;5032218;28;20044;-58
2022/12/06 06:01:22;;;;;;;9.63;9.02;;;;;;;;;;5029463;28;20401;-59
2022/12/06 06:03:47;;;;;;;9.30;8.60;;;;;;;;;;5030186;28;20076;-59
2022/12/06 06:06:13;;;;;;;9.70;9.10;;;;;;;;;;5034785;28;20467;-59
2022/12/06 06:08:39;;;;;;;9.07;8.48;;;;;;;;;;5032817;28;20029;-58
2022/12/06 06:11:04;;;;;;;9.80;9.13;;;;;;;;;;5032301;28;20109;-59
2022/12/06 06:13:29;;;;;;;9.15;8.55;;;;;;;;;;5034426;28;20064;-59
2022/12/06 06:15:55;;;;;;;9.52;8.93;;;;;;;;;;5032557;28;20052;-59
2022/12/06 06:18:21;;;;;;;9.32;8.73;;;;;;;;;;5031454;28;20710;-59
2022/12/06 06:20:49;;;;;;;8.98;8.38;;;;;;;;;;5033099;28;20043;-59
2022/12/06 06:23:15;;;;;;;10.05;9.35;;;;;;;;;;5030807;28;20494;-58
2022/12/06 06:25:40;;;;;;;8.93;8.35;;;;;;;;;;5032090;28;20029;-58
2022/12/06 06:28:06;;;;;;;9.00;8.43;;;;;;;;;;5032511;28;20485;-58
2022/12/06 06:30:31;;;;;;;10.73;9.95;;;;;;;;;;5033337;28;20039;-58
2022/12/06 06:32:56;;;;;;;10.05;9.40;;;;;;;;;;5033220;28;20511;-57
2022/12/06 06:35:22;;;;;;;9.27;8.68;;;;;;;;;;5031109;28;20328;-56
2022/12/06 06:37:47;;;;;;;9.73;9.13;;;;;;;;;;5033018;28;20029;-57
2022/12/06 06:40:13;;;;;;;9.70;9.10;;;;;;;;;;5032894;28;20095;-56
2022/12/06 06:42:38;;;;;;;10.23;9.52;;;;;;;;;;5030130;28;20037;-56
2022/12/06 06:45:05;;;;;;;9.90;9.20;;;;;;;;;;5031188;28;20033;-57
2022/12/06 06:47:30;;;;;;;10.63;9.90;;;;;;;;;;5030343;28;20605;-57
2022/12/06 06:49:55;;;;;;;10.13;9.43;;;;;;;;;;5033491;28;20036;-59
2022/12/06 06:52:21;;;;;;;10.10;9.50;;;;;;;;;;5030548;28;20037;-56
2022/12/06 06:54:46;;;;;;;10.63;9.93;;;;;;;;;;5034555;28;20026;-59
2022/12/06 06:57:12;;;;;;;9.52;8.93;;;;;;;;;;5033435;28;20416;-58
2022/12/06 06:59:38;;;;;;;9.68;9.02;;;;;;;;;;5030091;28;20037;-59
2022/12/06 07:02:03;;;;;;;10.70;9.90;;;;;;;;;;5031044;28;20130;-59
2022/12/06 07:04:29;;;;;;;9.85;9.25;;;;;;;;;;5031458;28;20112;-59
2022/12/06 07:06:54;;;;;;;8.93;8.32;;;;;;;;;;5031160;28;20052;-56
2022/12/06 07:09:20;;;;;;;10.23;9.63;;;;;;;;;;5030913;28;20033;-55
2022/12/06 07:11:45;;;;;;;9.70;9.10;;;;;;;;;;5031735;28;20417;-58
2022/12/06 07:14:10;;;;;;;8.32;7.82;;;;;;;;;;5029754;28;20037;-57
2022/12/06 07:16:36;;;;;;;9.88;9.27;;;;;;;;;;5032478;28;20039;-53
2022/12/06 07:19:02;;;;;;;9.90;9.30;;;;;;;;;;5030777;28;20348;-58
2022/12/06 07:21:27;;;;;;;9.93;9.23;;;;;;;;;;5032514;28;20037;-59
2022/12/06 07:23:52;;;;;;;9.77;9.18;;;;;;;;;;5033922;28;20116;-59
2022/12/06 07:26:22;;;;;;;9.18;8.57;;;;;;;;;;5031120;28;20049;-57
2022/12/06 07:28:49;;;;;;;9.70;9.10;;;;;;;;;;5032873;28;20033;-59
2022/12/06 07:31:18;;;;;;;8.93;8.32;;;;;;;;;;5032841;28;20126;-59
2022/12/06 07:33:45;;;;;;;8.93;8.32;;;;;;;;;;5032478;28;20036;-56
2022/12/06 07:36:11;;;;;;;10.05;9.18;;;;;;;;;;5030574;28;20048;-59
2022/12/06 07:38:37;;;;;;;9.50;8.90;;;;;;;;;;5030293;28;20037;-56
2022/12/06 07:46:34;;;;;;;8.77;8.23;;;;;;;;;;5030843;28;20026;-59
2022/12/06 07:49:00;;;;;;;8.63;8.02;;;;;;;;;;5030114;28;20048;-59
2022/12/06 07:51:25;;;;;;;8.90;8.30;;;;;;;;;;5029675;28;20094;-59
2022/12/06 07:53:50;;;;;;;11.52;10.35;;;;;;;;;;5030674;28;20055;-59
2022/12/06 07:56:16;;;;;;;9.30;8.70;;;;;;;;;;5033150;28;20036;-59
2022/12/06 07:58:41;;;;;;;9.57;8.98;;;;;;;;;;5031376;28;20478;-59
2022/12/06 08:01:06;;;;;;;9.38;8.77;;;;;;;;;;5031694;28;20036;-57
2022/12/06 08:03:32;;;;;;;9.85;9.25;;;;;;;;;;5034557;28;20481;-59
2022/12/06 08:05:57;;;;;;;9.70;9.10;;;;;;;;;;5030258;28;20033;-59
2022/12/06 08:08:23;;;;;;;10.40;9.70;;;;;;;;;;5030828;28;20489;-59
2022/12/06 08:10:48;;;;;;;9.38;8.77;;;;;;;;;;5031447;28;20037;-59
2022/12/06 08:13:13;;;;;;;9.75;9.15;;;;;;;;;;5034013;28;20041;-59
2022/12/06 08:15:39;;;;;;;9.70;9.10;;;;;;;;;;5034462;28;20036;-59
2022/12/06 08:18:04;;;;;;;10.23;9.63;;;;;;;;;;5034432;28;20053;-59
2022/12/06 08:20:30;;;;;;;10.00;9.40;;;;;;;;;;5033166;28;20029;-59
2022/12/06 08:22:55;;;;;;;9.75;9.15;;;;;;;;;;5036239;28;20477;-59
2022/12/06 08:25:21;;;;;;;9.27;8.68;;;;;;;;;;5034784;28;20478;-58
2022/12/06 08:27:46;;;;;;;11.23;10.43;;;;;;;;;;5037156;28;20637;-58
2022/12/06 08:30:11;;;;;;;9.82;9.20;;;;;;;;;;5035650;28;20044;-58
2022/12/06 08:32:37;;;;;;;11.45;10.70;;;;;;;;;;5038714;28;20745;-58
2022/12/06 08:35:02;;;;;;;10.57;9.88;;;;;;;;;;5035160;28;20033;-58
2022/12/06 08:37:28;;;;;;;10.05;9.45;;;;;;;;;;5032786;28;20044;-58
2022/12/06 08:39:53;;;;;;;11.13;10.35;;;;;;;;;;5034299;28;20048;-58
2022/12/06 08:42:18;;;;;;;12.27;11.30;;;;;;;;;;5031401;28;20041;-58
2022/12/06 08:44:44;;;;;;;10.13;9.52;;;;;;;;;;5033823;28;20403;-58
2022/12/06 08:47:10;;;;;;;10.93;10.02;;;;;;;;;;5029700;28;20403;-58
2022/12/06 08:49:35;;;;;;;10.38;9.75;;;;;;;;;;5033042;28;20040;-58
2022/12/06 08:52:00;;;;;;;10.00;9.35;;;;;;;;;;5032219;28;20048;-58
2022/12/06 08:54:26;;;;;;;10.90;10.23;;;;;;;;;;5033464;28;20029;-58
2022/12/06 08:56:52;;;;;;;9.70;9.00;;;;;;;;;;5031610;28;20087;-58
2022/12/06 08:59:18;;;;;;;10.40;9.70;;;;;;;;;;5031798;28;20049;-58
2022/12/06 09:01:44;;;;;;;10.63;9.93;;;;;;;;;;5034593;28;20038;-58
2022/12/06 09:04:10;;;;;;;10.38;9.75;;;;;;;;;;5033231;28;20043;-58
2022/12/06 09:06:40;;;;;;;10.95;10.25;;;;;;;;;;5032251;28;20067;-58
2022/12/06 09:09:07;;;;;;;9.98;9.38;;;;;;;;;;5031307;28;20135;-58
2022/12/06 09:11:32;;;;;;;10.82;10.13;;;;;;;;;;5035238;28;20025;-58
2022/12/06 09:13:57;;;;;;;10.27;9.68;;;;;;;;;;5033942;28;20355;-58
2022/12/06 09:16:23;;;;;;;11.43;10.73;;;;;;;;;;5030765;28;20095;-58
2022/12/06 09:18:50;;;;;;;11.85;11.05;;;;;;;;;;5034813;28;20120;-58
2022/12/06 09:21:21;;;;;;;11.27;10.57;;;;;;;;;;5034129;28;20037;-58
2022/12/06 09:23:46;;;;;;;;;;;;;;;;;;5036115;28;20366;-58
2022/12/06 09:26:12;;;;;;;9.60;9.00;;;;;;;;;;5034559;28;19917;-58
2022/12/06 09:28:40;;;;;;;9.93;9.32;;;;;;;;;;5033360;28;20044;-58
2022/12/06 09:31:07;;;;;;;10.90;10.25;;;;;;;;;;5036466;28;20044;-58
2022/12/06 09:33:32;;;;;;;10.65;10.00;;;;;;;;;;5033156;28;20059;-58
2022/12/06 09:36:01;;;;;;;11.52;10.77;;;;;;;;;;5030883;28;20045;-58
2022/12/06 09:38:30;;;;;;;11.13;10.43;;;;;;;;;;5033760;28;20377;-58
2022/12/06 09:41:23;;;;;;;11.32;10.63;;;;;;;;;;5034756;28;20545;-57
2022/12/06 09:44:16;;;;;;;9.77;9.18;;;;;;;;;;5034585;28;20041;-58
2022/12/06 09:47:25;;;;;;;11.98;11.27;;;;;;;;;;5032207;28;20072;-58
2022/12/06 09:50:07;;;;;;;10.25;9.63;;;;;;;;;;5033579;28;20047;-58
2022/12/06 09:52:54;;;;;;;10.85;10.15;;;;;;;;;;5039629;28;20132;-58
2022/12/06 09:55:59;;;;;;;10.95;10.25;;;;;;;;;;5033302;28;20055;-57
2022/12/06 09:58:27;;;;;;;9.85;9.25;;;;;;;;;;5032357;28;20051;-57
2022/12/06 10:01:00;;;;;;;10.02;9.43;;;;;;;;;;5029605;28;20437;-57
2022/12/06 10:03:43;;;;;;;10.73;10.05;;;;;;;;;;5032771;28;20127;-56
2022/12/06 10:06:13;;;;;;;10.18;9.57;;;;;;;;;;5036139;28;20128;-57
2022/12/06 10:08:49;;;;;;;10.02;9.43;;;;;;;;;;5030734;28;20042;-57
2022/12/06 10:11:36;;;;;;;9.70;9.10;;;;;;;;;;5035094;28;20047;-57
2022/12/06 10:14:16;;;;;;;9.80;9.20;;;;;;;;;;5033624;28;20079;-58
2022/12/06 10:16:59;;;;;;;10.70;10.00;;;;;;;;;;5034516;28;20483;-57
2022/12/06 10:19:27;;;;;;;9.45;8.85;;;;;;;;;;5030875;28;20337;-57
2022/12/06 10:22:13;;;;;;;11.07;10.38;;;;;;;;;;5030492;28;20071;-58
2022/12/06 10:24:51;;;;;;;11.55;10.85;;;;;;;;;;5034177;28;20123;-58
2022/12/06 10:27:24;;;;;;;9.32;8.73;;;;;;;;;;5032119;28;20029;-58
2022/12/06 10:30:01;;;;;;;11.43;10.35;;;;;;;;;;5030573;28;20094;-58
2022/12/06 10:32:26;;;;;;;9.73;9.13;;;;;;;;;;5031129;28;20047;-57
2022/12/06 10:34:55;;;;;;;10.23;9.63;;;;;;;;;;5031228;28;20029;-58
2022/12/06 10:37:45;;;;;;;11.18;10.38;;;;;;;;;;5032602;28;20162;-58
2022/12/06 10:40:30;;;;;;;9.75;9.15;;;;;;;;;;5028415;28;20033;-58
2022/12/06 10:43:16;;;;;;;9.60;9.00;;;;;;;;;;5032330;28;20036;-57
2022/12/06 10:48:47;;;;;;;10.98;10.27;;;;;;;;;;5028697;28;20037;-58
2022/12/06 10:51:21;;;;;;;10.35;9.65;;;;;;;;;;5033075;28;20045;-58
2022/12/06 10:53:54;;;;;;;11.15;10.45;;;;;;;;;;5031895;28;20710;-58
2022/12/06 10:56:27;;;;;;;9.82;9.23;;;;;;;;;;5032723;28;20048;-59
2022/12/06 10:59:18;;;;;;;10.40;9.80;;;;;;;;;;5030756;28;20128;-58
2022/12/06 11:01:45;;;;;;;10.80;10.10;;;;;;;;;;5033456;28;20040;-58
2022/12/06 11:04:27;;;;;;;10.75;10.05;;;;;;;;;;5030872;28;20049;-58
2022/12/06 11:06:57;;;;;;;11.65;10.93;;;;;;;;;;5034369;28;20622;-58
2022/12/06 11:09:32;;;;;;;10.98;10.27;;;;;;;;;;5030355;28;20439;-58
2022/12/06 11:11:58;;;;;;;9.65;9.05;;;;;;;;;;5027776;28;20036;-58
2022/12/06 11:14:37;;;;;;;10.10;9.50;;;;;;;;;;5029090;28;20048;-58
2022/12/06 11:17:19;;;;;;;10.63;9.95;;;;;;;;;;5028981;28;20066;-58
2022/12/06 11:19:51;;;;;;;11.95;11.15;;;;;;;;;;5031695;28;20095;-58
2022/12/06 11:22:25;;;;;;;;;;;;;;;;;;5030004;28;20095;-58
2022/12/06 11:25:01;;;;;;;9.95;9.35;;;;;;;;;;5030441;28;20584;-59
2022/12/06 11:27:38;;;;;;;10.80;10.10;;;;;;;;;;5031271;28;20033;-58
2022/12/06 11:30:14;;;;;;;10.60;9.90;;;;;;;;;;5038996;28;20336;-59
2022/12/06 11:32:40;;;;;;;10.68;10.02;;;;;;;;;;5030530;28;20030;-58
2022/12/06 11:35:15;;;;;;;11.07;10.38;;;;;;;;;;5032173;28;20615;-58
2022/12/06 11:37:42;;;;;;;10.07;9.48;;;;;;;;;;5030672;28;20065;-59
2022/12/06 11:40:21;;;;;;;10.32;9.73;;;;;;;;;;5030307;28;20740;-60
2022/12/06 11:42:46;;;;;;;10.68;9.98;;;;;;;;;;5030326;28;20033;-58
2022/12/06 11:45:29;;;;;;;12.05;11.35;;;;;;;;;;5025778;28;20371;-59
2022/12/06 11:47:56;;;;;;;11.02;10.32;;;;;;;;;;5032461;28;20029;-59
2022/12/06 11:50:23;;;;;;;10.48;9.88;;;;;;;;;;5032845;28;20069;-59
2022/12/06 11:52:54;;;;;;;11.05;10.35;;;;;;;;;;5034057;28;20128;-60
2022/12/06 11:55:26;;;;;;;9.95;9.35;;;;;;;;;;5032975;28;20041;-59
2022/12/06 11:58:02;;;;;;;10.75;10.05;;;;;;;;;;5035257;28;20045;-59
2022/12/06 12:00:29;;;;;;;11.38;10.57;;;;;;;;;;5035342;28;20187;-59
2022/12/06 12:02:55;;;;;;;11.93;11.10;;;;;;;;;;5036197;28;20427;-59
2022/12/06 12:05:33;;;;;;;10.20;9.57;;;;;;;;;;5033021;28;20478;-59
2022/12/06 12:08:01;;;;;;;11.57;10.80;;;;;;;;;;5035120;28;20040;-59
2022/12/06 12:10:27;;;;;;;11.10;10.40;;;;;;;;;;5032457;28;20166;-59
2022/12/06 12:15:46;;;;;;;10.43;9.73;;;;;;;;;;5031962;28;20486;-57
2022/12/06 12:18:21;;;;;;;10.90;10.10;;;;;;;;;;5033478;28;20045;-59
2022/12/06 12:20:47;;;;;;;10.68;9.98;;;;;;;;;;5034683;28;20613;-59
2022/12/06 12:23:22;;;;;;;11.63;10.93;;;;;;;;;;5034143;28;20581;-59
2022/12/06 12:25:59;;;;;;;10.00;9.40;;;;;;;;;;5032367;28;20037;-59
2022/12/06 12:28:27;;;;;;;11.32;10.63;;;;;;;;;;5031712;28;20044;-56
2022/12/06 12:30:55;;;;;;;10.68;10.00;;;;;;;;;;5034838;28;20505;-58
2022/12/06 12:33:23;;;;;;;9.80;9.20;;;;;;;;;;5032528;28;20052;-57
2022/12/06 12:36:07;;;;;;;10.52;9.93;;;;;;;;;;5032867;28;20072;-57
2022/12/06 12:38:40;;;;;;;10.00;9.40;;;;;;;;;;5031882;28;20856;-59
2022/12/06 12:41:31;;;;;;;10.32;9.52;;;;;;;;;;5035018;28;20038;-58
2022/12/06 12:44:03;;;;;;;10.13;9.47;;;;;;;;;;5030574;28;20123;-57
2022/12/06 12:46:30;;;;;;;10.85;10.15;;;;;;;;;;5032029;28;20056;-58
2022/12/06 12:49:24;;;;;;;9.60;9.00;;;;;;;;;;5035236;28;20254;-59
2022/12/06 12:51:50;;;;;;;10.18;9.57;;;;;;;;;;5032359;28;20049;-59
2022/12/06 12:54:28;;;;;;;9.60;9.00;;;;;;;;;;5032657;28;20299;-58
2022/12/06 12:56:54;;;;;;;9.93;9.32;;;;;;;;;;5036492;28;20036;-58
2022/12/06 12:59:25;;;;;;;9.75;9.15;;;;;;;;;;5031143;28;20371;-57
2022/12/06 13:01:52;;;;;;;10.25;9.57;;;;;;;;;;5034195;28;20037;-59
2022/12/06 13:04:24;;;;;;;10.25;9.65;;;;;;;;;;5034389;28;20356;-59
2022/12/06 13:06:49;;;;;;;;;;;;;;;;;;5037121;28;20063;-57
2022/12/06 13:09:24;;;;;;;9.85;9.25;;;;;;;;;;5032316;28;19940;-57
2022/12/06 13:11:56;;;;;;;10.65;9.95;;;;;;;;;;5035186;28;20105;-57
2022/12/06 13:14:23;;;;;;;10.90;10.20;;;;;;;;;;5033408;28;20052;-56
2022/12/06 13:16:52;;;;;;;10.32;9.68;;;;;;;;;;5036059;28;20106;-57
2022/12/06 13:19:19;;;;;;;10.65;10.00;;;;;;;;;;5033819;28;20067;-57
2022/12/06 13:21:47;;;;;;;11.07;10.38;;;;;;;;;;5036753;28;20167;-57
2022/12/06 13:24:20;;;;;;;9.27;8.68;;;;;;;;;;5031324;28;20046;-58
2022/12/06 13:26:54;;;;;;;10.88;10.23;;;;;;;;;;5035443;28;20443;-58
2022/12/06 13:29:32;;;;;;;9.85;9.25;;;;;;;;;;5031228;28;20121;-58
2022/12/06 13:32:04;;;;;;;10.15;9.55;;;;;;;;;;5033731;28;20029;-58
2022/12/06 13:34:35;;;;;;;9.80;9.20;;;;;;;;;;5032269;28;20060;-56
2022/12/06 13:37:01;;;;;;;10.30;9.60;;;;;;;;;;5037816;28;20477;-58
2022/12/06 13:39:29;;;;;;;9.63;9.02;;;;;;;;;;5034918;28;20193;-58
2022/12/06 13:44:46;;;;;;;10.07;9.48;;;;;;;;;;5033845;28;20033;-57
2022/12/06 13:47:26;;;;;;;9.30;8.70;;;;;;;;;;5032023;28;20048;-56
2022/12/06 13:49:58;;;;;;;9.32;8.73;;;;;;;;;;5033335;28;20116;-57
2022/12/06 13:52:42;;;;;;;9.48;8.88;;;;;;;;;;5032343;28;20055;-57
2022/12/06 13:55:23;;;;;;;9.82;9.23;;;;;;;;;;5032725;28;20041;-58
2022/12/06 13:58:08;;;;;;;10.60;9.80;;;;;;;;;;5034587;28;20060;-57
2022/12/06 14:00:39;;;;;;;9.13;8.52;;;;;;;;;;5016025;28;21373;-58
2022/12/06 14:03:20;;;;;;;8.77;8.20;;;;;;;;;;5033607;28;20461;-58
2022/12/06 14:06:08;;;;;;;10.02;9.43;;;;;;;;;;5034685;28;20128;-58
2022/12/06 14:08:36;;;;;;;8.80;8.20;;;;;;;;;;5032823;28;20045;-58
2022/12/06 14:11:20;;;;;;;9.45;8.85;;;;;;;;;;5032068;28;20039;-58
2022/12/06 14:14:00;;;;;;;9.45;8.85;;;;;;;;;;5031773;28;20040;-58
2022/12/06 14:16:36;;;;;;;9.85;9.02;;;;;;;;;;5030322;28;20420;-58
2022/12/06 14:19:22;;;;;;;10.65;10.00;;;;;;;;;;5032207;28;20037;-58
2022/12/06 14:21:57;;;;;;;10.80;10.15;;;;;;;;;;5032254;28;20025;-58
2022/12/06 14:24:33;;;;;;;9.52;8.93;;;;;;;;;;5032386;28;20528;-58
2022/12/06 14:27:11;;;;;;;11.50;10.35;;;;;;;;;;5030063;28;20057;-58
2022/12/06 14:29:37;;;;;;;9.60;9.00;;;;;;;;;;5030678;28;20040;-57
2022/12/06 14:32:02;;;;;;;10.10;9.40;;;;;;;;;;5031231;28;20038;-57
2022/12/06 14:34:30;;;;;;;10.13;9.45;;;;;;;;;;5032783;28;20052;-58
2022/12/06 14:36:58;;;;;;;10.15;9.55;;;;;;;;;;5032000;28;20048;-58
2022/12/06 14:39:26;;;;;;;10.38;9.77;;;;;;;;;;5030656;28;20056;-58
2022/12/06 14:45:02;;;;;;;9.63;9.02;;;;;;;;;;5030958;28;20025;-58
2022/12/06 14:47:27;;;;;;;9.80;9.20;;;;;;;;;;5029993;28;20048;-58
2022/12/06 14:53:03;;;;;;;10.35;9.68;;;;;;;;;;5029522;28;20055;-58
2022/12/06 14:55:31;;;;;;;10.23;9.52;;;;;;;;;;5030723;28;20536;-58
2022/12/06 14:58:02;;;;;;;9.82;9.23;;;;;;;;;;5033889;28;20033;-58
2022/12/06 15:00:46;;;;;;;9.73;9.13;;;;;;;;;;5030709;28;20037;-58
2022/12/06 15:03:14;;;;;;;9.52;8.93;;;;;;;;;;5031910;28;20056;-57
2022/12/06 15:05:51;;;;;;;9.77;9.18;;;;;;;;;;5029895;28;20135;-58
2022/12/06 15:08:31;;;;;;;9.00;8.40;;;;;;;;;;5032022;28;20039;-58
2022/12/06 15:11:04;;;;;;;9.73;9.13;;;;;;;;;;5032473;28;20037;-58
2022/12/06 15:13:29;;;;;;;10.10;9.50;;;;;;;;;;5034282;28;20106;-58
2022/12/06 15:16:00;;;;;;;9.88;9.25;;;;;;;;;;5034385;28;20037;-58
2022/12/06 15:18:37;;;;;;;10.25;9.55;;;;;;;;;;5037627;28;20037;-56
2022/12/06 15:21:14;;;;;;;10.57;9.88;;;;;;;;;;5033334;28;20033;-59
2022/12/06 15:23:48;;;;;;;9.18;8.57;;;;;;;;;;5032457;28;20481;-58
2022/12/06 15:26:14;;;;;;;10.35;9.65;;;;;;;;;;5036554;28;20048;-58
2022/12/06 15:28:40;;;;;;;10.52;9.82;;;;;;;;;;5034057;28;20704;-59
2022/12/06 15:31:15;;;;;;;10.30;9.57;;;;;;;;;;5035815;28;20041;-59